sensor_id;sensor_type;location;lat;lon;timestamp;pressure;altitude;pressure_sealevel;temperature;humidity
62697;BME280;48761;42.680;23.312;2023-07-20T00:00:35;94513.63;;;26.51;50.46
62697;BME280;48761;42.680;23.312;2023-07-20T00:03:12;94515.22;;;26.66;50.55
62697;BME280;48761;42.680;23.312;2023-07-20T00:05:38;94509.25;;;26.83;49.65
62697;BME280;48761;42.680;23.312;2023-07-20T00:08:04;94510.22;;;26.63;51.51
62697;BME280;48761;42.680;23.312;2023-07-20T00:10:30;94509.50;;;26.28;51.92
62697;BME280;48761;42.680;23.312;2023-07-20T00:12:55;94504.19;;;25.81;50.34
62697;BME280;48761;42.680;23.312;2023-07-20T00:15:21;94514.84;;;25.41;50.43
62697;BME280;48761;42.680;23.312;2023-07-20T00:17:47;94517.56;;;25.41;50.52
62697;BME280;48761;42.680;23.312;2023-07-20T00:20:13;94515.50;;;25.78;51.21
62697;BME280;48761;42.680;23.312;2023-07-20T00:22:39;94520.47;;;26.01;49.98
62697;BME280;48761;42.680;23.312;2023-07-20T00:25:05;94522.59;;;25.45;51.63
62697;BME280;48761;42.680;23.312;2023-07-20T00:27:31;94517.13;;;25.04;52.60
62697;BME280;48761;42.680;23.312;2023-07-20T00:29:57;94522.16;;;25.21;51.66
62697;BME280;48761;42.680;23.312;2023-07-20T00:32:23;94523.84;;;25.83;51.09
62697;BME280;48761;42.680;23.312;2023-07-20T00:34:49;94511.88;;;25.97;50.02
62697;BME280;48761;42.680;23.312;2023-07-20T00:37:15;94521.56;;;25.80;50.03
62697;BME280;48761;42.680;23.312;2023-07-20T00:39:40;94525.72;;;25.69;49.37
62697;BME280;48761;42.680;23.312;2023-07-20T00:42:06;94517.34;;;25.09;51.00
62697;BME280;48761;42.680;23.312;2023-07-20T00:44:32;94508.75;;;24.92;51.35
62697;BME280;48761;42.680;23.312;2023-07-20T00:46:58;94513.72;;;24.88;51.57
62697;BME280;48761;42.680;23.312;2023-07-20T00:49:24;94505.41;;;24.96;51.61
62697;BME280;48761;42.680;23.312;2023-07-20T00:51:50;94507.91;;;24.91;52.21
62697;BME280;48761;42.680;23.312;2023-07-20T00:54:16;94506.16;;;24.63;54.14
62697;BME280;48761;42.680;23.312;2023-07-20T00:56:43;94506.81;;;24.16;56.42
62697;BME280;48761;42.680;23.312;2023-07-20T00:59:09;94475.47;;;24.20;56.17
62697;BME280;48761;42.680;23.312;2023-07-20T01:01:36;94496.97;;;24.15;57.15
62697;BME280;48761;42.680;23.312;2023-07-20T01:04:02;94473.16;;;24.17;56.80
62697;BME280;48761;42.680;23.312;2023-07-20T01:14:07;94503.78;;;25.29;54.83
62697;BME280;48761;42.680;23.312;2023-07-20T01:16:34;94512.13;;;25.01;55.67
62697;BME280;48761;42.680;23.312;2023-07-20T01:19:00;94515.25;;;24.35;58.04
62697;BME280;48761;42.680;23.312;2023-07-20T01:21:41;94500.56;;;23.80;60.02
62697;BME280;48761;42.680;23.312;2023-07-20T01:24:33;94501.94;;;23.69;60.43
62697;BME280;48761;42.680;23.312;2023-07-20T01:27:13;94511.81;;;23.26;61.77
62697;BME280;48761;42.680;23.312;2023-07-20T01:32:14;94502.75;;;23.12;62.64
62697;BME280;48761;42.680;23.312;2023-07-20T01:34:42;94516.88;;;23.51;61.43
62697;BME280;48761;42.680;23.312;2023-07-20T01:37:10;94514.00;;;23.95;60.32
62697;BME280;48761;42.680;23.312;2023-07-20T01:39:37;94507.16;;;23.42;61.89
62697;BME280;48761;42.680;23.312;2023-07-20T01:42:04;94500.44;;;23.37;61.76
62697;BME280;48761;42.680;23.312;2023-07-20T01:44:30;94513.38;;;23.93;60.38
62697;BME280;48761;42.680;23.312;2023-07-20T01:46:56;94504.63;;;24.04;59.95
62697;BME280;48761;42.680;23.312;2023-07-20T01:49:22;94506.56;;;23.75;60.44
62697;BME280;48761;42.680;23.312;2023-07-20T01:51:48;94493.84;;;24.18;59.14
62697;BME280;48761;42.680;23.312;2023-07-20T01:54:14;94506.47;;;24.33;58.96
62697;BME280;48761;42.680;23.312;2023-07-20T01:56:40;94513.03;;;24.59;58.71
62697;BME280;48761;42.680;23.312;2023-07-20T01:59:06;94515.38;;;24.62;58.62
62697;BME280;48761;42.680;23.312;2023-07-20T02:01:32;94487.91;;;24.43;58.88
62697;BME280;48761;42.680;23.312;2023-07-20T02:03:57;94505.34;;;24.69;57.90
62697;BME280;48761;42.680;23.312;2023-07-20T02:06:23;94492.66;;;24.27;59.40
62697;BME280;48761;42.680;23.312;2023-07-20T02:08:49;94499.06;;;24.76;58.45
62697;BME280;48761;42.680;23.312;2023-07-20T02:11:15;94474.41;;;24.57;57.72
62697;BME280;48761;42.680;23.312;2023-07-20T02:13:41;94494.03;;;24.59;58.17
62697;BME280;48761;42.680;23.312;2023-07-20T02:16:07;94487.19;;;24.21;58.84
62697;BME280;48761;42.680;23.312;2023-07-20T02:18:33;94483.00;;;23.47;61.60
62697;BME280;48761;42.680;23.312;2023-07-20T02:20:58;94505.31;;;24.06;59.94
62697;BME280;48761;42.680;23.312;2023-07-20T02:23:24;94504.84;;;24.45;59.02
62697;BME280;48761;42.680;23.312;2023-07-20T02:25:50;94500.34;;;24.80;57.49
62697;BME280;48761;42.680;23.312;2023-07-20T02:28:16;94495.81;;;25.01;56.65
62697;BME280;48761;42.680;23.312;2023-07-20T02:30:42;94500.34;;;24.80;56.80
62697;BME280;48761;42.680;23.312;2023-07-20T02:33:08;94494.50;;;24.76;57.28
62697;BME280;48761;42.680;23.312;2023-07-20T02:35:34;94493.69;;;24.96;57.33
62697;BME280;48761;42.680;23.312;2023-07-20T02:38:00;94483.66;;;24.96;57.69
62697;BME280;48761;42.680;23.312;2023-07-20T02:40:26;94481.56;;;24.99;57.56
62697;BME280;48761;42.680;23.312;2023-07-20T02:42:52;94486.16;;;24.98;57.73
62697;BME280;48761;42.680;23.312;2023-07-20T02:45:18;94479.50;;;25.01;58.21
62697;BME280;48761;42.680;23.312;2023-07-20T02:47:44;94469.22;;;24.89;58.41
62697;BME280;48761;42.680;23.312;2023-07-20T02:50:10;94466.28;;;24.77;58.46
62697;BME280;48761;42.680;23.312;2023-07-20T02:52:36;94467.75;;;24.87;58.18
62697;BME280;48761;42.680;23.312;2023-07-20T02:55:02;94466.50;;;24.89;57.78
62697;BME280;48761;42.680;23.312;2023-07-20T02:57:28;94445.59;;;24.69;58.59
62697;BME280;48761;42.680;23.312;2023-07-20T02:59:54;94479.66;;;24.85;58.29
62697;BME280;48761;42.680;23.312;2023-07-20T03:02:20;94471.94;;;24.96;58.07
62697;BME280;48761;42.680;23.312;2023-07-20T03:04:46;94476.13;;;24.99;57.95
62697;BME280;48761;42.680;23.312;2023-07-20T03:07:11;94472.41;;;25.13;57.59
62697;BME280;48761;42.680;23.312;2023-07-20T03:09:37;94469.88;;;25.18;57.27
62697;BME280;48761;42.680;23.312;2023-07-20T03:12:03;94469.06;;;25.04;57.32
62697;BME280;48761;42.680;23.312;2023-07-20T03:14:29;94485.13;;;24.92;57.71
62697;BME280;48761;42.680;23.312;2023-07-20T03:16:55;94475.47;;;24.83;58.24
62697;BME280;48761;42.680;23.312;2023-07-20T03:19:21;94476.13;;;24.85;58.46
62697;BME280;48761;42.680;23.312;2023-07-20T03:21:47;94480.50;;;24.86;58.43
62697;BME280;48761;42.680;23.312;2023-07-20T03:24:13;94488.72;;;25.27;56.56
62697;BME280;48761;42.680;23.312;2023-07-20T03:26:39;94494.53;;;24.96;57.34
62697;BME280;48761;42.680;23.312;2023-07-20T03:29:05;94499.19;;;25.10;57.04
62697;BME280;48761;42.680;23.312;2023-07-20T03:31:31;94489.53;;;25.14;56.57
62697;BME280;48761;42.680;23.312;2023-07-20T03:33:57;94487.88;;;25.33;56.11
62697;BME280;48761;42.680;23.312;2023-07-20T03:36:23;94459.44;;;25.15;56.37
62697;BME280;48761;42.680;23.312;2023-07-20T03:38:48;94483.28;;;25.20;56.80
62697;BME280;48761;42.680;23.312;2023-07-20T03:41:14;94489.13;;;25.24;56.48
62697;BME280;48761;42.680;23.312;2023-07-20T03:43:40;94474.28;;;25.33;55.47
62697;BME280;48761;42.680;23.312;2023-07-20T03:46:06;94489.97;;;25.45;55.97
62697;BME280;48761;42.680;23.312;2023-07-20T03:48:33;94489.09;;;25.51;55.83
62697;BME280;48761;42.680;23.312;2023-07-20T03:50:59;94505.88;;;25.75;56.18
62697;BME280;48761;42.680;23.312;2023-07-20T03:53:25;94493.69;;;25.91;55.25
62697;BME280;48761;42.680;23.312;2023-07-20T03:55:51;94492.84;;;25.97;54.86
62697;BME280;48761;42.680;23.312;2023-07-20T03:58:19;94477.72;;;26.02;53.87
62697;BME280;48761;42.680;23.312;2023-07-20T04:00:49;94507.44;;;26.17;53.95
62697;BME280;48761;42.680;23.312;2023-07-20T04:03:15;94500.28;;;26.23;53.75
62697;BME280;48761;42.680;23.312;2023-07-20T04:05:42;94502.75;;;26.38;53.38
62697;BME280;48761;42.680;23.312;2023-07-20T04:08:08;94493.75;;;26.44;52.75
62697;BME280;48761;42.680;23.312;2023-07-20T04:10:34;94496.00;;;26.54;52.74
62697;BME280;48761;42.680;23.312;2023-07-20T04:13:00;94490.28;;;26.10;54.04
62697;BME280;48761;42.680;23.312;2023-07-20T04:15:26;94497.50;;;25.83;54.48
62697;BME280;48761;42.680;23.312;2023-07-20T04:17:52;94476.53;;;25.63;54.65
62697;BME280;48761;42.680;23.312;2023-07-20T04:20:18;94482.41;;;25.74;55.08
62697;BME280;48761;42.680;23.312;2023-07-20T04:22:44;94488.31;;;25.30;55.71
62697;BME280;48761;42.680;23.312;2023-07-20T04:25:10;94484.06;;;24.80;56.91
62697;BME280;48761;42.680;23.312;2023-07-20T04:27:36;94474.09;;;25.28;56.50
62697;BME280;48761;42.680;23.312;2023-07-20T04:30:02;94476.13;;;24.99;56.33
62697;BME280;48761;42.680;23.312;2023-07-20T04:32:28;94479.25;;;24.89;56.72
62697;BME280;48761;42.680;23.312;2023-07-20T04:34:54;94482.22;;;25.35;55.41
62697;BME280;48761;42.680;23.312;2023-07-20T04:37:20;94467.97;;;24.99;56.30
62697;BME280;48761;42.680;23.312;2023-07-20T04:39:46;94470.31;;;25.02;55.88
62697;BME280;48761;42.680;23.312;2023-07-20T04:42:12;94477.16;;;24.91;56.08
62697;BME280;48761;42.680;23.312;2023-07-20T04:44:38;94471.94;;;24.89;55.85
62697;BME280;48761;42.680;23.312;2023-07-20T04:47:04;94461.88;;;24.83;56.15
62697;BME280;48761;42.680;23.312;2023-07-20T04:49:29;94472.53;;;24.64;56.35
62697;BME280;48761;42.680;23.312;2023-07-20T04:51:55;94451.09;;;25.10;55.70
62697;BME280;48761;42.680;23.312;2023-07-20T04:54:21;94478.84;;;25.80;55.08
62697;BME280;48761;42.680;23.312;2023-07-20T04:56:47;94469.91;;;25.46;54.96
62697;BME280;48761;42.680;23.312;2023-07-20T04:59:13;94470.28;;;25.77;53.66
62697;BME280;48761;42.680;23.312;2023-07-20T05:01:39;94467.50;;;26.57;52.17
62697;BME280;48761;42.680;23.312;2023-07-20T05:04:05;94473.44;;;26.79;51.81
62697;BME280;48761;42.680;23.312;2023-07-20T05:06:31;94458.47;;;27.47;50.11
62697;BME280;48761;42.680;23.312;2023-07-20T05:08:56;94470.91;;;26.78;51.59
62697;BME280;48761;42.680;23.312;2023-07-20T05:11:22;94467.56;;;28.23;49.18
62697;BME280;48761;42.680;23.312;2023-07-20T05:13:48;94473.88;;;26.76;51.34
62697;BME280;48761;42.680;23.312;2023-07-20T05:16:14;94477.25;;;27.04;50.97
62697;BME280;48761;42.680;23.312;2023-07-20T05:18:40;94482.22;;;27.91;48.91
62697;BME280;48761;42.680;23.312;2023-07-20T05:21:06;94478.88;;;28.07;48.56
62697;BME280;48761;42.680;23.312;2023-07-20T05:23:32;94475.41;;;28.57;47.88
62697;BME280;48761;42.680;23.312;2023-07-20T05:25:59;94478.34;;;28.55;47.28
62697;BME280;48761;42.680;23.312;2023-07-20T05:28:26;94460.03;;;28.37;46.87
62697;BME280;48761;42.680;23.312;2023-07-20T05:30:52;94484.72;;;28.80;46.15
62697;BME280;48761;42.680;23.312;2023-07-20T05:33:19;94488.44;;;29.16;45.49
62697;BME280;48761;42.680;23.312;2023-07-20T05:35:46;94487.31;;;29.60;44.82
62697;BME280;48761;42.680;23.312;2023-07-20T05:38:12;94476.84;;;29.69;44.66
62697;BME280;48761;42.680;23.312;2023-07-20T05:40:39;94481.81;;;28.93;45.28
62697;BME280;48761;42.680;23.312;2023-07-20T05:43:05;94495.03;;;29.39;44.86
62697;BME280;48761;42.680;23.312;2023-07-20T05:45:31;94501.59;;;29.62;44.41
62697;BME280;48761;42.680;23.312;2023-07-20T05:47:57;94506.38;;;29.79;43.90
62697;BME280;48761;42.680;23.312;2023-07-20T05:50:23;94505.19;;;29.99;43.57
62697;BME280;48761;42.680;23.312;2023-07-20T05:52:52;94498.78;;;30.05;43.79
62697;BME280;48761;42.680;23.312;2023-07-20T05:55:18;94500.03;;;30.51;42.46
62697;BME280;48761;42.680;23.312;2023-07-20T05:57:44;94511.50;;;30.36;42.33
62697;BME280;48761;42.680;23.312;2023-07-20T06:00:10;94495.09;;;29.75;43.12
62697;BME280;48761;42.680;23.312;2023-07-20T06:02:36;94486.72;;;30.06;43.13
62697;BME280;48761;42.680;23.312;2023-07-20T06:05:02;94481.63;;;28.07;45.67
62697;BME280;48761;42.680;23.312;2023-07-20T06:07:28;94488.13;;;28.06;45.80
62697;BME280;48761;42.680;23.312;2023-07-20T06:09:54;94492.81;;;28.37;46.09
62697;BME280;48761;42.680;23.312;2023-07-20T06:12:20;94464.22;;;30.58;41.62
62697;BME280;48761;42.680;23.312;2023-07-20T06:14:45;94490.28;;;31.65;40.38
62697;BME280;48761;42.680;23.312;2023-07-20T06:17:11;94492.19;;;31.82;38.98
62697;BME280;48761;42.680;23.312;2023-07-20T06:19:37;94486.47;;;32.06;38.91
62697;BME280;48761;42.680;23.312;2023-07-20T06:22:03;94471.66;;;31.68;39.44
62697;BME280;48761;42.680;23.312;2023-07-20T06:24:29;94476.59;;;31.02;40.02
62697;BME280;48761;42.680;23.312;2023-07-20T06:26:55;94472.66;;;30.97;40.47
62697;BME280;48761;42.680;23.312;2023-07-20T06:29:21;94449.84;;;31.09;40.40
62697;BME280;48761;42.680;23.312;2023-07-20T06:31:48;94470.13;;;31.25;39.88
62697;BME280;48761;42.680;23.312;2023-07-20T06:34:14;94472.38;;;31.46;39.70
62697;BME280;48761;42.680;23.312;2023-07-20T06:36:39;94467.63;;;31.93;39.02
62697;BME280;48761;42.680;23.312;2023-07-20T06:39:05;94463.91;;;32.04;38.36
62697;BME280;48761;42.680;23.312;2023-07-20T06:41:31;94456.19;;;32.01;38.95
62697;BME280;48761;42.680;23.312;2023-07-20T06:43:57;94466.66;;;32.04;39.65
62697;BME280;48761;42.680;23.312;2023-07-20T06:46:27;94464.66;;;32.17;39.52
62697;BME280;48761;42.680;23.312;2023-07-20T06:48:53;94470.91;;;32.80;38.34
62697;BME280;48761;42.680;23.312;2023-07-20T06:51:19;94460.28;;;32.16;39.29
62697;BME280;48761;42.680;23.312;2023-07-20T06:53:45;94464.97;;;32.88;38.57
62697;BME280;48761;42.680;23.312;2023-07-20T06:56:11;94464.13;;;33.15;37.94
62697;BME280;48761;42.680;23.312;2023-07-20T06:58:37;94473.88;;;32.73;37.78
62697;BME280;48761;42.680;23.312;2023-07-20T07:01:07;94489.97;;;32.64;38.41
62697;BME280;48761;42.680;23.312;2023-07-20T07:03:33;94496.53;;;30.56;41.61
62697;BME280;48761;42.680;23.312;2023-07-20T07:05:59;94494.44;;;31.85;39.83
62697;BME280;48761;42.680;23.312;2023-07-20T07:08:25;94487.47;;;29.78;42.91
62697;BME280;48761;42.680;23.312;2023-07-20T07:10:52;94493.91;;;31.37;40.25
62697;BME280;48761;42.680;23.312;2023-07-20T07:13:19;94511.56;;;30.82;42.10
62697;BME280;48761;42.680;23.312;2023-07-20T07:15:45;94516.63;;;29.96;43.41
62697;BME280;48761;42.680;23.312;2023-07-20T07:18:11;94523.63;;;30.28;42.89
62697;BME280;48761;42.680;23.312;2023-07-20T07:20:37;94539.59;;;30.31;43.05
62697;BME280;48761;42.680;23.312;2023-07-20T07:23:02;94536.25;;;30.53;42.56
62697;BME280;48761;42.680;23.312;2023-07-20T07:25:28;94548.88;;;30.95;41.96
62697;BME280;48761;42.680;23.312;2023-07-20T07:27:54;94551.19;;;31.97;40.47
62697;BME280;48761;42.680;23.312;2023-07-20T07:30:21;94541.03;;;32.15;40.00
62697;BME280;48761;42.680;23.312;2023-07-20T07:32:47;94555.09;;;31.66;41.10
62697;BME280;48761;42.680;23.312;2023-07-20T07:35:13;94544.56;;;31.29;42.27
62697;BME280;48761;42.680;23.312;2023-07-20T07:37:39;94526.59;;;30.14;44.30
62697;BME280;48761;42.680;23.312;2023-07-20T07:40:06;94527.66;;;32.41;40.22
62697;BME280;48761;42.680;23.312;2023-07-20T07:42:32;94526.66;;;31.90;40.54
62697;BME280;48761;42.680;23.312;2023-07-20T07:44:58;94530.47;;;32.91;39.08
62697;BME280;48761;42.680;23.312;2023-07-20T07:47:24;94537.50;;;31.33;41.22
62697;BME280;48761;42.680;23.312;2023-07-20T07:49:50;94507.94;;;31.52;40.97
62697;BME280;48761;42.680;23.312;2023-07-20T07:52:16;94481.50;;;29.93;43.93
62697;BME280;48761;42.680;23.312;2023-07-20T07:54:42;94483.97;;;29.58;44.50
62697;BME280;48761;42.680;23.312;2023-07-20T07:57:07;94477.97;;;29.13;45.66
62697;BME280;48761;42.680;23.312;2023-07-20T07:59:33;94505.97;;;30.48;44.06
62697;BME280;48761;42.680;23.312;2023-07-20T08:01:59;94499.72;;;31.40;42.28
62697;BME280;48761;42.680;23.312;2023-07-20T08:04:25;94502.25;;;32.33;40.39
62697;BME280;48761;42.680;23.312;2023-07-20T08:06:51;94524.88;;;31.49;42.02
62697;BME280;48761;42.680;23.312;2023-07-20T08:09:17;94537.13;;;31.59;41.83
62697;BME280;48761;42.680;23.312;2023-07-20T08:11:43;94544.84;;;31.96;41.18
62697;BME280;48761;42.680;23.312;2023-07-20T08:14:09;94535.44;;;32.49;39.94
62697;BME280;48761;42.680;23.312;2023-07-20T08:16:35;94538.78;;;30.84;42.64
62697;BME280;48761;42.680;23.312;2023-07-20T08:19:01;94531.63;;;31.12;42.77
62697;BME280;48761;42.680;23.312;2023-07-20T08:21:27;94548.94;;;30.71;44.84
62697;BME280;48761;42.680;23.312;2023-07-20T08:23:53;94559.72;;;30.37;45.30
62697;BME280;48761;42.680;23.312;2023-07-20T08:26:19;94550.78;;;31.24;43.55
62697;BME280;48761;42.680;23.312;2023-07-20T08:28:44;94541.63;;;31.82;41.82
62697;BME280;48761;42.680;23.312;2023-07-20T08:31:10;94543.47;;;32.33;40.17
62697;BME280;48761;42.680;23.312;2023-07-20T08:33:36;94545.72;;;32.37;39.96
62697;BME280;48761;42.680;23.312;2023-07-20T08:36:02;94551.16;;;32.31;39.39
62697;BME280;48761;42.680;23.312;2023-07-20T08:38:28;94561.88;;;31.47;39.62
62697;BME280;48761;42.680;23.312;2023-07-20T08:40:54;94559.75;;;31.66;39.18
62697;BME280;48761;42.680;23.312;2023-07-20T08:43:22;94554.03;;;31.68;39.05
62697;BME280;48761;42.680;23.312;2023-07-20T08:45:48;94544.13;;;31.66;38.64
62697;BME280;48761;42.680;23.312;2023-07-20T08:48:15;94554.84;;;32.20;38.26
62697;BME280;48761;42.680;23.312;2023-07-20T08:50:42;94549.50;;;32.30;37.33
62697;BME280;48761;42.680;23.312;2023-07-20T08:53:10;94548.75;;;31.49;39.44
62697;BME280;48761;42.680;23.312;2023-07-20T08:55:36;94542.88;;;31.57;38.75
62697;BME280;48761;42.680;23.312;2023-07-20T08:58:02;94551.81;;;31.06;38.78
62697;BME280;48761;42.680;23.312;2023-07-20T09:00:30;94539.22;;;31.51;38.20
62697;BME280;48761;42.680;23.312;2023-07-20T09:02:56;94531.63;;;31.12;39.00
62697;BME280;48761;42.680;23.312;2023-07-20T09:05:24;94532.28;;;31.49;38.38
62697;BME280;48761;42.680;23.312;2023-07-20T09:07:51;94530.34;;;31.32;38.66
62697;BME280;48761;42.680;23.312;2023-07-20T09:10:21;94523.41;;;32.10;37.71
62697;BME280;48761;42.680;23.312;2023-07-20T09:12:47;94516.94;;;32.22;37.22
62697;BME280;48761;42.680;23.312;2023-07-20T09:15:13;94525.97;;;32.40;37.06
62697;BME280;48761;42.680;23.312;2023-07-20T09:17:39;94515.88;;;32.23;37.26
62697;BME280;48761;42.680;23.312;2023-07-20T09:20:05;94526.63;;;31.73;37.58
62697;BME280;48761;42.680;23.312;2023-07-20T09:22:32;94508.44;;;31.66;37.21
62697;BME280;48761;42.680;23.312;2023-07-20T09:24:58;94495.38;;;31.57;37.52
62697;BME280;48761;42.680;23.312;2023-07-20T09:27:38;94496.66;;;32.68;35.59
62697;BME280;48761;42.680;23.312;2023-07-20T09:30:05;94502.28;;;32.79;34.60
62697;BME280;48761;42.680;23.312;2023-07-20T09:32:31;94504.19;;;32.55;35.39
62697;BME280;48761;42.680;23.312;2023-07-20T09:34:57;94497.53;;;32.51;35.46
62697;BME280;48761;42.680;23.312;2023-07-20T09:37:23;94495.56;;;32.69;34.59
62697;BME280;48761;42.680;23.312;2023-07-20T09:39:51;94510.00;;;32.82;33.50
62697;BME280;48761;42.680;23.312;2023-07-20T09:42:18;94504.91;;;32.68;34.05
62697;BME280;48761;42.680;23.312;2023-07-20T09:44:44;94505.03;;;32.56;33.59
62697;BME280;48761;42.680;23.312;2023-07-20T09:47:10;94500.19;;;32.46;34.30
62697;BME280;48761;42.680;23.312;2023-07-20T09:49:40;94494.97;;;32.44;34.87
62697;BME280;48761;42.680;23.312;2023-07-20T09:52:08;94494.75;;;32.69;34.28
62697;BME280;48761;42.680;23.312;2023-07-20T09:54:35;94484.16;;;32.15;34.44
62697;BME280;48761;42.680;23.312;2023-07-20T09:57:03;94459.22;;;32.22;34.23
62697;BME280;48761;42.680;23.312;2023-07-20T09:59:29;94454.41;;;32.57;34.14
62697;BME280;48761;42.680;23.312;2023-07-20T10:01:57;94450.28;;;32.09;33.68
62697;BME280;48761;42.680;23.312;2023-07-20T10:04:25;94465.75;;;31.98;33.84
62697;BME280;48761;42.680;23.312;2023-07-20T10:06:53;94434.34;;;31.20;35.14
62697;BME280;48761;42.680;23.312;2023-07-20T10:09:22;94456.66;;;31.24;34.90
62697;BME280;48761;42.680;23.312;2023-07-20T10:11:50;94469.34;;;30.95;35.69
62697;BME280;48761;42.680;23.312;2023-07-20T10:14:20;94471.59;;;31.16;35.52
62697;BME280;48761;42.680;23.312;2023-07-20T10:16:58;94459.13;;;31.42;35.36
62697;BME280;48761;42.680;23.312;2023-07-20T10:19:34;94453.50;;;31.32;36.41
62697;BME280;48761;42.680;23.312;2023-07-20T10:22:03;94468.78;;;31.28;36.70
62697;BME280;48761;42.680;23.312;2023-07-20T10:24:34;94488.06;;;30.98;36.71
62697;BME280;48761;42.680;23.312;2023-07-20T10:27:00;94466.25;;;30.92;36.13
62697;BME280;48761;42.680;23.312;2023-07-20T10:29:29;94468.91;;;30.74;37.85
62697;BME280;48761;42.680;23.312;2023-07-20T10:31:56;94439.66;;;30.92;36.54
62697;BME280;48761;42.680;23.312;2023-07-20T10:34:23;94432.50;;;30.91;36.16
62697;BME280;48761;42.680;23.312;2023-07-20T10:36:51;94454.00;;;31.29;35.33
62697;BME280;48761;42.680;23.312;2023-07-20T10:39:28;94466.59;;;30.95;36.13
62697;BME280;48761;42.680;23.312;2023-07-20T10:42:06;94467.69;;;30.82;36.57
62697;BME280;48761;42.680;23.312;2023-07-20T10:44:34;94458.25;;;31.19;36.39
62697;BME280;48761;42.680;23.312;2023-07-20T10:47:08;94408.81;;;30.56;37.00
62697;BME280;48761;42.680;23.312;2023-07-20T10:49:35;94359.00;;;30.59;37.34
62697;BME280;48761;42.680;23.312;2023-07-20T10:52:05;94415.19;;;30.91;37.87
62697;BME280;48761;42.680;23.312;2023-07-20T10:57:30;94427.31;;;30.77;37.78
62697;BME280;48761;42.680;23.312;2023-07-20T11:00:12;94394.44;;;31.12;37.40
62697;BME280;48761;42.680;23.312;2023-07-20T11:02:49;94405.66;;;31.28;36.10
62697;BME280;48761;42.680;23.312;2023-07-20T11:05:42;94398.78;;;31.08;37.67
62697;BME280;48761;42.680;23.312;2023-07-20T11:08:12;94394.78;;;31.33;36.96
62697;BME280;48761;42.680;23.312;2023-07-20T11:10:39;94380.56;;;31.19;36.72
62697;BME280;48761;42.680;23.312;2023-07-20T11:13:23;94392.94;;;31.56;36.64
62697;BME280;48761;42.680;23.312;2023-07-20T11:18:27;94388.28;;;31.57;37.65
62697;BME280;48761;42.680;23.312;2023-07-20T11:20:57;94379.59;;;31.48;37.41
62697;BME280;48761;42.680;23.312;2023-07-20T11:23:23;94391.56;;;31.76;37.26
62697;BME280;48761;42.680;23.312;2023-07-20T11:25:49;94388.47;;;31.90;37.02
62697;BME280;48761;42.680;23.312;2023-07-20T11:28:16;94388.31;;;31.79;37.52
62697;BME280;48761;42.680;23.312;2023-07-20T11:30:41;94370.31;;;31.88;36.89
62697;BME280;48761;42.680;23.312;2023-07-20T11:33:11;94377.75;;;31.71;37.07
62697;BME280;48761;42.680;23.312;2023-07-20T11:35:44;94366.22;;;31.69;37.33
62697;BME280;48761;42.680;23.312;2023-07-20T11:38:12;94367.69;;;31.99;37.74
62697;BME280;48761;42.680;23.312;2023-07-20T11:40:45;94360.56;;;31.98;37.73
62697;BME280;48761;42.680;23.312;2023-07-20T11:43:12;94360.63;;;32.53;36.63
62697;BME280;48761;42.680;23.312;2023-07-20T11:45:39;94353.03;;;32.10;37.04
62697;BME280;48761;42.680;23.312;2023-07-20T11:48:05;94355.84;;;32.16;37.40
62697;BME280;48761;42.680;23.312;2023-07-20T11:50:31;94336.34;;;32.45;37.00
62697;BME280;48761;42.680;23.312;2023-07-20T11:52:57;94356.50;;;32.79;36.50
62697;BME280;48761;42.680;23.312;2023-07-20T11:55:23;94346.00;;;32.75;35.93
62697;BME280;48761;42.680;23.312;2023-07-20T11:58:05;94339.91;;;32.68;35.80
62697;BME280;48761;42.680;23.312;2023-07-20T12:00:33;94330.97;;;32.55;35.56
62697;BME280;48761;42.680;23.312;2023-07-20T12:02:59;94337.03;;;32.07;36.85
62697;BME280;48761;42.680;23.312;2023-07-20T12:05:25;94337.75;;;32.20;36.83
62697;BME280;48761;42.680;23.312;2023-07-20T12:07:51;94326.59;;;32.60;36.26
62697;BME280;48761;42.680;23.312;2023-07-20T12:10:24;94331.75;;;32.79;35.95
62697;BME280;48761;42.680;23.312;2023-07-20T12:12:51;94322.34;;;32.74;34.38
62697;BME280;48761;42.680;23.312;2023-07-20T12:15:23;94312.63;;;32.99;33.67
62697;BME280;48761;42.680;23.312;2023-07-20T12:17:50;94336.09;;;32.74;34.61
62697;BME280;48761;42.680;23.312;2023-07-20T12:20:36;94311.94;;;32.82;34.89
62697;BME280;48761;42.680;23.312;2023-07-20T12:23:04;94315.94;;;32.96;34.49
62697;BME280;48761;42.680;23.312;2023-07-20T12:25:42;94332.81;;;32.50;34.33
62697;BME280;48761;42.680;23.312;2023-07-20T12:28:09;94310.94;;;32.60;33.83
62697;BME280;48761;42.680;23.312;2023-07-20T12:30:39;94312.31;;;32.91;33.33
62697;BME280;48761;42.680;23.312;2023-07-20T12:33:06;94312.72;;;33.10;33.42
62697;BME280;48761;42.680;23.312;2023-07-20T12:35:33;94297.78;;;33.00;33.09
62697;BME280;48761;42.680;23.312;2023-07-20T12:37:59;94311.66;;;33.16;32.38
62697;BME280;48761;42.680;23.312;2023-07-20T12:40:25;94307.13;;;32.99;30.47
62697;BME280;48761;42.680;23.312;2023-07-20T12:42:52;94303.25;;;32.95;29.94
62697;BME280;48761;42.680;23.312;2023-07-20T12:45:18;94311.28;;;33.40;29.29
62697;BME280;48761;42.680;23.312;2023-07-20T12:47:44;94312.06;;;33.79;28.69
62697;BME280;48761;42.680;23.312;2023-07-20T12:50:10;94313.69;;;33.80;28.41
62697;BME280;48761;42.680;23.312;2023-07-20T12:52:37;94302.38;;;33.22;29.54
62697;BME280;48761;42.680;23.312;2023-07-20T12:55:05;94298.69;;;33.50;29.69
62697;BME280;48761;42.680;23.312;2023-07-20T12:57:31;94288.66;;;33.33;29.96
62697;BME280;48761;42.680;23.312;2023-07-20T12:59:57;94281.47;;;33.21;30.99
62697;BME280;48761;42.680;23.312;2023-07-20T13:02:22;94293.41;;;33.43;30.87
62697;BME280;48761;42.680;23.312;2023-07-20T13:04:48;94279.41;;;33.55;30.51